Time;durP1;ratioP1;P1;durP2;ratioP2;P2;SDS_P1;SDS_P2;PMS_P1;PMS_P2;Temp;Humidity;BMP_temperature;BMP_pressure;BME280_temperature;BME280_humidity;BME280_pressure;Samples;Min_cycle;Max_cycle;Signal;HPM_P1;HPM_P2
2022/06/24 00:02:13;;;;;;;1.10;0.90;;;25.60;68.70;26.20;96007.00;;;;5029274;28;20289;-90
2022/06/24 00:04:41;;;;;;;2.63;1.17;;;25.50;69.10;26.20;96011.00;;;;5024557;28;20229;-89
2022/06/24 00:07:16;;;;;;;1.17;0.87;;;25.50;69.50;26.20;95997.00;;;;5027915;28;20287;-90
2022/06/24 00:09:45;;;;;;;2.27;1.07;;;25.50;69.90;26.20;95985.00;;;;5028180;28;20322;-90
2022/06/24 00:12:15;;;;;;;1.33;0.80;;;25.50;70.10;26.20;95970.00;;;;5032041;28;20208;-90
2022/06/24 00:14:45;;;;;;;1.83;1.43;;;25.50;70.30;26.10;95967.00;;;;5030570;28;20624;-90
2022/06/24 00:17:15;;;;;;;2.53;1.13;;;25.40;70.40;26.10;95963.00;;;;5031594;28;20523;-90
2022/06/24 00:19:57;;;;;;;2.53;1.00;;;25.40;70.50;26.00;95959.00;;;;5023796;28;20594;-90
2022/06/24 00:22:25;;;;;;;2.27;1.00;;;25.40;70.60;26.00;95966.00;;;;5032288;28;20551;-90
2022/06/24 00:25:11;;;;;;;2.87;0.97;;;25.30;70.60;26.00;95990.00;;;;5022857;28;20298;-89
2022/06/24 00:27:39;;;;;;;1.37;0.60;;;25.30;70.90;25.90;96005.00;;;;5028516;28;20221;-90
2022/06/24 00:30:13;;;;;;;5.70;1.23;;;25.30;71.10;25.90;96002.00;;;;5032801;28;20240;-90
2022/06/24 00:32:41;;;;;;;2.83;0.90;;;25.20;71.10;25.80;96010.00;;;;5027525;28;20233;-89
2022/06/24 00:35:13;;;;;;;2.07;0.87;;;25.20;71.30;25.80;96007.00;;;;5026125;28;20195;-89
2022/06/24 00:37:43;;;;;;;1.37;0.77;;;25.20;71.40;25.80;96005.00;;;;5028975;28;20285;-89
2022/06/24 00:40:31;;;;;;;0.77;0.60;;;25.10;71.60;25.70;96005.00;;;;5030166;28;20290;-89
2022/06/24 00:43:00;;;;;;;1.20;1.07;;;25.10;71.70;25.60;96013.00;;;;5031010;28;20647;-89
2022/06/24 00:45:37;;;;;;;1.17;0.80;;;25.00;71.70;25.60;96022.00;;;;5028451;28;20748;-90
2022/06/24 00:48:14;;;;;;;2.20;0.80;;;25.00;72.10;25.50;96024.00;;;;5027666;28;20216;-90
2022/06/24 00:50:47;;;;;;;1.47;0.60;;;24.90;72.20;25.50;96031.00;;;;5029404;28;20759;-90
2022/06/24 00:53:15;;;;;;;1.07;0.80;;;24.90;72.30;25.40;96027.00;;;;5029522;28;20685;-91
2022/06/24 00:55:47;;;;;;;2.33;0.77;;;24.80;72.50;25.40;96040.00;;;;5020993;28;20244;-89
2022/06/24 00:58:17;;;;;;;2.20;0.70;;;24.80;72.50;25.40;96040.00;;;;5024558;28;20247;-89
2022/06/24 01:00:46;;;;;;;1.10;0.70;;;24.70;72.60;25.30;96039.00;;;;5031108;28;20696;-90
2022/06/24 01:03:15;;;;;;;1.03;0.60;;;24.70;72.80;25.30;96041.00;;;;5030796;28;20718;-90
2022/06/24 01:05:44;;;;;;;0.97;0.70;;;24.70;72.90;25.30;96041.00;;;;5025048;28;20703;-90
2022/06/24 01:08:13;;;;;;;3.70;0.60;;;24.60;73.70;25.30;96046.00;;;;5028081;28;20666;-89
2022/06/24 01:10:48;;;;;;;1.13;0.50;;;24.60;73.20;25.20;96034.00;;;;5029846;28;20669;-90
2022/06/24 01:13:16;;;;;;;0.80;0.60;;;24.60;73.30;25.20;96041.00;;;;5029642;28;20196;-89
2022/06/24 01:15:43;;;;;;;1.20;0.60;;;24.50;73.40;25.20;96040.00;;;;5030213;28;20223;-89
2022/06/24 01:18:10;;;;;;;1.90;0.40;;;24.50;73.60;25.20;96034.00;;;;5031056;28;20395;-89
2022/06/24 01:20:37;;;;;;;1.57;0.50;;;24.50;73.80;25.20;96031.00;;;;5030742;28;20221;-89
2022/06/24 01:23:06;;;;;;;1.33;0.70;;;24.50;73.80;25.20;96041.00;;;;5030952;28;20607;-89
2022/06/24 01:25:33;;;;;;;3.23;0.93;;;24.50;73.90;25.20;96042.00;;;;5031127;28;20196;-90
2022/06/24 01:28:01;;;;;;;0.80;0.50;;;24.50;73.90;25.20;96040.00;;;;5029694;28;20260;-90
2022/06/24 01:30:28;;;;;;;1.10;0.60;;;24.50;74.10;25.20;96042.00;;;;5025283;28;20771;-89
2022/06/24 01:32:56;;;;;;;2.03;0.47;;;24.40;74.20;25.10;96038.00;;;;5031278;28;20231;-89
2022/06/24 01:35:23;;;;;;;1.50;0.50;;;24.40;74.30;25.10;96041.00;;;;5024882;28;20292;-89
2022/06/24 01:37:50;;;;;;;1.40;0.50;;;24.40;74.10;25.10;96040.00;;;;5030741;28;20263;-90
2022/06/24 01:40:19;;;;;;;1.00;0.47;;;24.40;74.10;25.10;96038.00;;;;5022911;28;20599;-88
2022/06/24 01:42:46;;;;;;;0.60;0.30;;;24.40;74.10;25.00;96036.00;;;;5026225;28;20666;-89
2022/06/24 01:45:13;;;;;;;0.80;0.40;;;24.40;74.20;25.00;96035.00;;;;5029380;28;20224;-90
2022/06/24 01:47:40;;;;;;;1.00;0.27;;;24.30;74.10;25.00;96028.00;;;;5028384;28;20275;-90
2022/06/24 01:50:08;;;;;;;1.17;0.40;;;24.30;74.00;24.90;96034.00;;;;5031071;28;20395;-90
2022/06/24 01:52:36;;;;;;;2.10;0.37;;;24.30;73.90;24.90;96033.00;;;;5033489;28;20289;-89
2022/06/24 01:55:04;;;;;;;1.30;0.50;;;24.30;73.90;24.90;96038.00;;;;5034375;28;20196;-89
2022/06/24 01:57:33;;;;;;;1.03;0.50;;;24.20;73.90;24.90;96040.00;;;;5032802;28;20205;-90
2022/06/24 02:00:00;;;;;;;2.30;0.50;;;24.20;73.90;24.80;96044.00;;;;5033930;28;20263;-89
2022/06/24 02:02:28;;;;;;;1.70;0.43;;;24.20;73.90;24.80;96043.00;;;;5033476;28;20211;-89
2022/06/24 02:04:55;;;;;;;1.13;0.50;;;24.20;73.90;24.80;96037.00;;;;5034901;28;20204;-89
2022/06/24 02:07:23;;;;;;;0.83;0.50;;;24.10;73.80;24.80;96028.00;;;;5030077;28;20212;-90
2022/06/24 02:15:21;;;;;;;1.47;0.50;;;24.00;74.30;24.70;96034.00;;;;5034722;28;20211;-89
2022/06/24 02:17:48;;;;;;;1.23;0.60;;;24.00;74.20;24.60;96025.00;;;;5028753;28;20220;-89
2022/06/24 02:20:16;;;;;;;0.50;0.30;;;24.00;74.20;24.60;96030.00;;;;5031817;28;20224;-89
2022/06/24 02:22:44;;;;;;;1.47;0.40;;;23.90;74.30;24.60;96027.00;;;;5035033;28;20283;-90
2022/06/24 02:25:11;;;;;;;1.00;0.33;;;23.90;74.40;24.60;96024.00;;;;5033656;28;20292;-90
2022/06/24 02:27:40;;;;;;;0.90;0.60;;;23.90;74.60;24.50;96018.00;;;;5026265;28;20225;-89
2022/06/24 02:30:09;;;;;;;1.30;0.50;;;23.90;74.40;24.50;96011.00;;;;5034430;28;20283;-90
2022/06/24 02:32:36;;;;;;;0.43;0.40;;;23.80;74.20;24.40;96013.00;;;;5035986;28;20228;-89
2022/06/24 02:35:04;;;;;;;2.33;0.30;;;23.80;74.20;24.40;96010.00;;;;5033169;28;20235;-89
2022/06/24 02:37:31;;;;;;;0.67;0.40;;;23.80;74.30;24.40;96016.00;;;;5033919;28;20314;-88
2022/06/24 02:40:45;;;;;;;0.77;0.40;;;23.80;74.30;24.30;96009.00;;;;5034918;28;20227;-89
2022/06/24 02:42:47;;;;;;;0.73;0.40;;;23.70;74.30;24.30;96011.00;;;;5033897;28;20200;-88
2022/06/24 02:45:14;;;;;;;1.90;0.50;;;23.70;74.50;24.20;96008.00;;;;5033835;28;20200;-88
2022/06/24 02:47:41;;;;;;;0.57;0.40;;;23.60;74.50;24.20;96013.00;;;;5031661;28;20641;-88
2022/06/24 02:50:09;;;;;;;2.30;0.60;;;23.60;74.70;24.20;96011.00;;;;5028937;28;20697;-88
2022/06/24 02:52:36;;;;;;;0.67;0.37;;;23.50;74.80;24.20;96008.00;;;;5033103;28;20618;-88
2022/06/24 02:55:04;;;;;;;0.97;0.40;;;23.50;74.70;24.10;96004.00;;;;5027632;28;20616;-88
2022/06/24 02:57:31;;;;;;;0.60;0.30;;;23.50;74.70;24.10;96006.00;;;;5032962;28;20206;-88
2022/06/24 03:00:00;;;;;;;0.73;0.40;;;23.50;74.70;24.00;96002.00;;;;5027904;28;20750;-88
2022/06/24 03:02:27;;;;;;;1.03;0.50;;;23.40;74.80;24.00;96003.00;;;;5031918;28;20264;-88
2022/06/24 03:04:54;;;;;;;1.80;0.40;;;23.40;74.80;24.00;96016.00;;;;5030242;28;20197;-88
2022/06/24 03:07:21;;;;;;;0.40;0.40;;;23.40;74.90;23.90;96018.00;;;;5030561;28;20621;-88
2022/06/24 03:09:49;;;;;;;0.50;0.50;;;23.30;74.70;23.90;96017.00;;;;5033724;28;20315;-88
2022/06/24 03:12:16;;;;;;;0.93;0.43;;;23.30;74.80;23.80;96020.00;;;;5032358;28;20252;-88
2022/06/24 03:14:43;;;;;;;1.87;0.50;;;23.20;74.90;23.80;96015.00;;;;5032561;28;20258;-88
2022/06/24 03:17:11;;;;;;;0.90;0.40;;;23.20;74.90;23.70;96014.00;;;;5031177;28;20194;-88
2022/06/24 03:19:39;;;;;;;0.60;0.40;;;23.20;74.90;23.70;96024.00;;;;5028876;28;20675;-88
2022/06/24 03:22:06;;;;;;;0.43;0.40;;;23.20;75.10;23.70;96027.00;;;;5031721;28;20221;-88
2022/06/24 03:24:33;;;;;;;1.00;0.50;;;23.10;75.10;23.70;96020.00;;;;5032899;28;20304;-88
2022/06/24 03:27:00;;;;;;;0.50;0.50;;;23.10;75.20;23.60;96027.00;;;;5030568;28;20204;-88
2022/06/24 03:29:27;;;;;;;1.23;0.57;;;23.10;75.10;23.60;96032.00;;;;5033170;28;20313;-88
2022/06/24 03:31:54;;;;;;;0.43;0.40;;;23.00;75.00;23.60;96030.00;;;;5026691;28;20197;-88
2022/06/24 03:34:23;;;;;;;0.40;0.30;;;23.00;75.10;23.60;96029.00;;;;5032708;28;20195;-88
2022/06/24 03:36:50;;;;;;;0.70;0.40;;;23.00;75.20;23.60;96024.00;;;;5027795;28;20194;-88
2022/06/24 03:39:17;;;;;;;1.17;0.47;;;23.00;75.20;23.60;96027.00;;;;5033317;28;20313;-88
2022/06/24 03:41:44;;;;;;;0.53;0.30;;;23.00;75.40;23.60;96030.00;;;;5031149;28;20276;-88
2022/06/24 03:44:11;;;;;;;0.40;0.40;;;22.90;75.30;23.60;96026.00;;;;5032421;28;20222;-88
2022/06/24 03:46:39;;;;;;;0.70;0.33;;;22.90;75.30;23.60;96028.00;;;;5030170;28;20281;-88
2022/06/24 03:49:06;;;;;;;0.60;0.30;;;22.90;75.40;23.60;96032.00;;;;5032857;28;20678;-88
2022/06/24 03:51:35;;;;;;;0.77;0.37;;;22.90;75.50;23.60;96027.00;;;;5029130;28;20233;-88
2022/06/24 03:54:03;;;;;;;1.13;0.30;;;22.90;75.70;23.60;96034.00;;;;5032957;28;20288;-88
2022/06/24 03:56:30;;;;;;;1.23;0.50;;;23.00;75.60;23.60;96036.00;;;;5029095;28;20287;-88
2022/06/24 03:58:58;;;;;;;0.40;0.40;;;22.90;75.70;23.60;96027.00;;;;5029602;28;20634;-88
2022/06/24 04:01:25;;;;;;;1.40;0.57;;;22.90;75.70;23.60;96029.00;;;;5029155;28;20335;-88
2022/06/24 04:03:52;;;;;;;0.97;0.70;;;22.90;75.70;23.60;96031.00;;;;5030766;28;20210;-87
2022/06/24 04:06:19;;;;;;;1.03;0.50;;;22.90;75.70;23.70;96035.00;;;;5029119;28;20209;-87
2022/06/24 04:08:48;;;;;;;0.30;0.30;;;23.00;75.70;23.70;96034.00;;;;5033182;28;20249;-87
2022/06/24 04:11:18;;;;;;;0.93;0.60;;;23.00;75.70;23.70;96029.00;;;;5030507;28;20261;-88
2022/06/24 04:13:46;;;;;;;1.00;0.40;;;23.00;75.70;23.70;96019.00;;;;5031530;28;20241;-88
2022/06/24 04:16:13;;;;;;;0.30;0.30;;;23.00;75.70;23.70;96024.00;;;;5031640;28;21541;-88
2022/06/24 04:18:41;;;;;;;0.93;0.40;;;23.00;75.80;23.70;96022.00;;;;5032017;28;20200;-88
2022/06/24 04:21:12;;;;;;;1.53;0.40;;;23.00;75.80;23.70;96017.00;;;;5032123;28;20246;-87
2022/06/24 04:23:39;;;;;;;0.70;0.43;;;23.00;75.80;23.80;96025.00;;;;5031615;28;20782;-90
2022/06/24 04:26:09;;;;;;;0.67;0.53;;;23.00;75.90;23.80;96025.00;;;;5031333;28;20259;-89
2022/06/24 04:28:36;;;;;;;0.97;0.40;;;23.10;76.00;23.90;96031.00;;;;5032357;28;20298;-89
2022/06/24 04:31:04;;;;;;;1.63;0.43;;;23.10;75.80;23.90;96028.00;;;;5032943;28;20225;-88
2022/06/24 04:33:31;;;;;;;2.47;0.63;;;23.10;75.70;24.00;96030.00;;;;5025856;28;20228;-89
2022/06/24 04:35:58;;;;;;;1.27;0.60;;;23.20;75.60;24.00;96033.00;;;;5031709;28;20228;-87
2022/06/24 04:38:25;;;;;;;0.80;0.50;;;23.20;75.50;24.00;96031.00;;;;5027554;28;20618;-87
2022/06/24 04:40:53;;;;;;;1.63;0.53;;;23.20;75.50;24.10;96033.00;;;;5032028;28;20589;-88
2022/06/24 04:43:21;;;;;;;2.60;0.60;;;23.20;75.40;24.10;96046.00;;;;5031038;28;20287;-87
2022/06/24 04:45:48;;;;;;;0.90;0.57;;;23.20;75.30;24.10;96041.00;;;;5031377;28;20223;-87
2022/06/24 04:48:15;;;;;;;0.93;0.63;;;23.30;75.40;24.10;96042.00;;;;5031637;28;20656;-87
2022/06/24 04:50:43;;;;;;;0.67;0.47;;;23.30;75.40;24.20;96050.00;;;;5029154;28;20279;-87
2022/06/24 04:53:10;;;;;;;2.37;0.67;;;23.30;75.30;24.20;96043.00;;;;5026024;28;20246;-87
2022/06/24 04:55:37;;;;;;;1.17;0.70;;;23.30;75.10;24.20;96052.00;;;;5028324;28;20359;-87
2022/06/24 04:58:04;;;;;;;1.33;0.50;;;23.40;75.20;24.20;96050.00;;;;5032190;28;20606;-88
2022/06/24 05:00:33;;;;;;;1.73;0.73;;;23.40;75.10;24.30;96045.00;;;;5031013;28;20579;-87
2022/06/24 05:03:00;;;;;;;1.23;0.60;;;23.40;75.10;24.30;96044.00;;;;5035824;28;20249;-88
2022/06/24 05:05:27;;;;;;;1.27;0.50;;;23.40;75.10;24.30;96040.00;;;;5035538;28;20291;-87
2022/06/24 05:07:54;;;;;;;1.73;0.47;;;23.50;75.80;24.40;96049.00;;;;5041685;28;20203;-87
2022/06/24 05:10:21;;;;;;;1.73;0.60;;;23.50;75.00;24.40;96043.00;;;;5059836;22;20230;-84
2022/06/24 05:12:49;;;;;;;0.67;0.40;;;23.50;75.10;24.40;96046.00;;;;5071911;28;20196;-84
2022/06/24 05:15:16;;;;;;;0.73;0.40;;;23.50;75.00;24.40;96042.00;;;;5059808;28;20280;-85
2022/06/24 05:17:44;;;;;;;1.70;0.67;;;23.60;74.90;24.40;96051.00;;;;5056446;28;20222;-83
2022/06/24 05:20:12;;;;;;;1.67;0.70;;;23.60;74.70;24.50;96035.00;;;;5049227;28;20618;-84
2022/06/24 05:22:39;;;;;;;1.17;0.80;;;23.60;74.80;24.50;96045.00;;;;5049753;28;20198;-85
2022/06/24 05:25:08;;;;;;;0.70;0.57;;;23.60;74.70;24.50;96059.00;;;;5045110;28;20278;-84
2022/06/24 05:27:35;;;;;;;1.17;0.50;;;23.60;74.70;24.50;96058.00;;;;5042734;28;20701;-84
2022/06/24 05:30:03;;;;;;;3.70;0.80;;;23.70;74.80;24.60;96056.00;;;;5046989;28;20254;-84
2022/06/24 05:32:31;;;;;;;1.63;0.87;;;23.70;74.80;24.60;96055.00;;;;5046892;28;20320;-83
2022/06/24 05:34:59;;;;;;;1.67;0.50;;;23.70;74.90;24.70;96048.00;;;;5044324;28;20212;-84
2022/06/24 05:37:27;;;;;;;1.27;0.70;;;23.80;74.80;24.70;96055.00;;;;5049416;28;20224;-84
2022/06/24 05:39:54;;;;;;;1.07;0.60;;;23.80;74.80;24.80;96057.00;;;;5051588;28;20228;-84
2022/06/24 05:42:21;;;;;;;1.20;0.50;;;23.80;74.70;24.80;96056.00;;;;5049878;28;20228;-85
2022/06/24 05:44:48;;;;;;;1.47;0.77;;;23.90;74.60;24.90;96057.00;;;;5051074;28;20286;-84
2022/06/24 05:47:15;;;;;;;1.30;0.90;;;23.90;74.30;24.90;96056.00;;;;5041860;28;20712;-84
2022/06/24 05:49:42;;;;;;;0.70;0.57;;;24.00;74.40;25.00;96054.00;;;;5049661;28;20742;-84
2022/06/24 05:52:11;;;;;;;1.87;0.83;;;24.00;74.30;25.00;96048.00;;;;5042218;28;20314;-85
2022/06/24 05:57:23;;;;;;;0.90;0.40;;;24.10;73.90;25.10;96047.00;;;;5044200;28;20293;-84
2022/06/24 05:59:50;;;;;;;1.33;0.60;;;24.10;73.90;25.10;96050.00;;;;5037950;28;20196;-85
2022/06/24 06:02:18;;;;;;;0.83;0.50;;;24.20;74.00;25.10;96053.00;;;;5047428;28;20235;-85
2022/06/24 06:04:53;;;;;;;1.13;0.67;;;24.20;74.00;25.20;96041.00;;;;5043855;28;20196;-85
2022/06/24 06:07:21;;;;;;;1.47;0.73;;;24.20;73.70;25.20;96029.00;;;;5039429;28;20666;-84
2022/06/24 06:09:48;;;;;;;1.00;0.40;;;24.30;73.50;25.30;96030.00;;;;5045148;28;20258;-84
2022/06/24 06:12:16;;;;;;;2.40;0.80;;;24.30;73.60;25.40;96031.00;;;;5048563;28;20221;-85
2022/06/24 06:14:44;;;;;;;0.70;0.50;;;24.40;73.80;25.50;96029.00;;;;5043437;28;20334;-84
2022/06/24 06:17:12;;;;;;;1.13;0.60;;;24.40;73.50;25.50;96027.00;;;;5041066;28;20216;-84
2022/06/24 06:19:39;;;;;;;1.20;0.60;;;24.50;73.10;25.60;96028.00;;;;5044703;28;20251;-84
2022/06/24 06:22:06;;;;;;;1.17;0.60;;;24.50;72.80;25.70;96025.00;;;;5048871;28;20331;-86
2022/06/24 06:24:35;;;;;;;1.30;0.50;;;24.60;72.80;25.70;96023.00;;;;5049520;28;20204;-85
2022/06/24 06:27:02;;;;;;;2.10;0.60;;;24.70;72.50;25.80;96030.00;;;;5048250;28;20269;-85
2022/06/24 06:29:29;;;;;;;0.57;0.47;;;24.70;72.30;25.90;96028.00;;;;5034325;28;20715;-84
2022/06/24 06:31:56;;;;;;;3.37;0.70;;;24.80;72.00;26.00;96023.00;;;;5032033;28;20308;-85
2022/06/24 06:34:24;;;;;;;0.73;0.67;;;24.90;71.80;26.00;96025.00;;;;5045887;28;20689;-85
2022/06/24 06:36:51;;;;;;;0.90;0.70;;;24.90;71.40;26.00;96023.00;;;;5037198;28;20641;-85
2022/06/24 06:39:18;;;;;;;1.17;0.50;;;25.00;71.30;26.10;96022.00;;;;5045740;28;20663;-85
2022/06/24 06:41:47;;;;;;;1.63;0.70;;;25.10;71.30;26.10;96033.00;;;;5043974;28;20212;-85
2022/06/24 06:44:15;;;;;;;1.53;0.60;;;25.10;71.40;26.20;96027.00;;;;5048770;28;20667;-85
2022/06/24 06:46:43;;;;;;;0.60;0.60;;;25.20;71.40;26.30;96030.00;;;;5051394;28;20312;-85
2022/06/24 06:49:10;;;;;;;0.73;0.53;;;25.20;71.40;26.30;96044.00;;;;5053205;28;20220;-85
2022/06/24 06:51:37;;;;;;;1.30;0.60;;;25.30;71.70;26.40;96056.00;;;;5052523;28;20313;-85
2022/06/24 06:54:05;;;;;;;1.30;0.77;;;25.30;71.80;26.50;96043.00;;;;5036995;28;20686;-84
2022/06/24 06:56:32;;;;;;;0.47;0.47;;;25.40;71.60;26.60;96042.00;;;;5051315;28;20249;-84
2022/06/24 06:59:01;;;;;;;1.57;0.70;;;25.50;71.60;26.70;96035.00;;;;5053426;28;20655;-85
2022/06/24 07:01:28;;;;;;;2.13;0.60;;;25.50;71.50;26.70;96042.00;;;;5036268;28;20204;-85
2022/06/24 07:03:55;;;;;;;1.87;0.60;;;25.60;71.60;26.80;96034.00;;;;5054211;28;20255;-85
2022/06/24 07:06:24;;;;;;;2.20;0.70;;;25.70;71.40;26.80;96032.00;;;;5053241;28;20223;-84
2022/06/24 07:08:51;;;;;;;1.17;0.57;;;25.50;70.70;26.90;96031.00;;;;5052401;28;20204;-84
2022/06/24 07:11:19;;;;;;;1.60;0.60;;;25.80;70.50;26.90;96030.00;;;;5035713;28;20769;-84
2022/06/24 07:13:46;;;;;;;1.50;0.60;;;25.80;70.50;26.90;96033.00;;;;5034865;28;20193;-84
2022/06/24 07:16:14;;;;;;;1.20;0.77;;;25.80;70.40;27.00;96032.00;;;;5051928;28;20625;-84
2022/06/24 07:18:41;;;;;;;1.30;0.60;;;25.90;69.90;27.00;96029.00;;;;5054497;28;20193;-84
2022/06/24 07:21:11;;;;;;;1.73;0.63;;;25.90;70.00;27.10;96023.00;;;;5041017;28;20258;-84
2022/06/24 07:23:39;;;;;;;1.57;0.57;;;26.00;70.20;27.10;96016.00;;;;5054001;28;20220;-84
2022/06/24 07:26:06;;;;;;;1.53;0.63;;;26.00;70.30;27.20;96024.00;;;;5040357;28;20678;-85
2022/06/24 07:28:35;;;;;;;0.67;0.50;;;26.00;70.30;27.30;96015.00;;;;5053953;28;20216;-85
2022/06/24 07:31:14;;;;;;;1.90;0.80;;;26.10;70.80;27.50;96018.00;;;;5043934;28;20538;-85
2022/06/24 07:33:42;;;;;;;1.50;0.70;;;26.20;70.50;27.60;96010.00;;;;5040755;28;20205;-85
2022/06/24 07:36:09;;;;;;;1.40;0.50;;;26.30;70.20;27.60;96008.00;;;;5049490;28;20243;-84
2022/06/24 07:38:36;;;;;;;1.40;0.73;;;26.40;70.00;27.70;96009.00;;;;5053927;28;20306;-84
2022/06/24 07:41:04;;;;;;;1.80;0.70;;;26.50;68.90;27.70;96006.00;;;;5052047;28;20235;-84
2022/06/24 07:43:31;;;;;;;0.60;0.60;;;26.50;68.80;27.80;96000.00;;;;5053486;28;20224;-84
2022/06/24 07:45:59;;;;;;;2.00;0.60;;;26.60;68.00;27.80;95999.00;;;;5052297;28;20201;-85
2022/06/24 07:48:28;;;;;;;0.57;0.50;;;26.60;68.20;27.90;96014.00;;;;5052658;28;20254;-85
2022/06/24 07:50:56;;;;;;;0.90;0.50;;;26.70;67.80;27.90;96020.00;;;;5037145;28;20200;-84
2022/06/24 07:53:23;;;;;;;1.70;0.57;;;26.70;67.70;28.00;96010.00;;;;5042822;28;20196;-85
2022/06/24 07:58:35;;;;;;;0.70;0.47;;;26.80;66.90;28.20;96023.00;;;;5053825;28;20315;-84
2022/06/24 08:01:02;;;;;;;0.97;0.53;;;26.90;67.40;28.30;96012.00;;;;5051791;28;20207;-84
2022/06/24 08:03:31;;;;;;;1.23;0.43;;;27.00;66.90;28.40;96013.00;;;;5033624;28;20280;-85
2022/06/24 08:05:58;;;;;;;1.80;0.43;;;27.10;66.70;28.40;96013.00;;;;5034020;28;20394;-85
2022/06/24 08:08:25;;;;;;;1.97;0.47;;;27.10;66.30;28.40;96008.00;;;;5052297;28;20632;-84
2022/06/24 08:10:52;;;;;;;1.83;0.50;;;27.20;66.60;28.50;96015.00;;;;5052642;28;20209;-84
2022/06/24 08:13:19;;;;;;;1.47;0.60;;;27.20;65.80;28.60;96003.00;;;;5034976;28;20772;-85
2022/06/24 08:15:46;;;;;;;1.87;0.53;;;27.30;65.70;28.60;96016.00;;;;5033146;28;20672;-84
2022/06/24 08:18:13;;;;;;;0.88;0.60;;;27.30;65.00;28.70;96007.00;;;;5048882;28;20208;-85
2022/06/24 08:20:42;;;;;;;1.73;0.60;;;27.40;64.90;28.80;96013.00;;;;5047051;28;20719;-83
2022/06/24 08:23:09;;;;;;;2.00;0.60;;;27.40;65.10;28.90;96011.00;;;;5042397;28;20690;-85
2022/06/24 08:25:36;;;;;;;1.83;0.52;;;27.50;65.00;28.90;96001.00;;;;5037732;28;20185;-84
2022/06/24 08:28:07;;;;;;;1.10;0.60;;;27.50;64.40;29.00;95999.00;;;;5032715;28;20217;-85
2022/06/24 08:30:35;;;;;;;1.92;0.77;;;27.60;64.40;29.00;95993.00;;;;5036787;28;20580;-85
2022/06/24 08:33:03;;;;;;;4.38;0.90;;;27.70;64.40;29.00;95999.00;;;;5032582;28;20221;-84
2022/06/24 08:35:30;;;;;;;1.90;1.33;;;27.70;64.20;29.00;95998.00;;;;5032404;28;20611;-84
2022/06/24 08:38:00;;;;;;;1.63;0.70;;;27.70;64.10;29.10;95997.00;;;;5039573;28;20216;-84
2022/06/24 08:40:29;;;;;;;1.92;0.77;;;27.80;63.70;29.00;95997.00;;;;5040701;28;20679;-84
2022/06/24 08:43:00;;;;;;;1.77;0.80;;;27.80;63.60;29.00;95992.00;;;;5031963;28;20297;-85
2022/06/24 08:45:28;;;;;;;2.85;0.90;;;27.80;63.50;29.00;95991.00;;;;5044520;28;20213;-84
2022/06/24 08:47:56;;;;;;;0.90;0.60;;;27.80;63.50;29.00;95989.00;;;;5044110;28;20258;-84
2022/06/24 08:50:25;;;;;;;2.08;0.60;;;27.80;63.30;29.00;95990.00;;;;5041260;28;20247;-85
2022/06/24 08:52:55;;;;;;;0.70;0.65;;;27.80;62.60;28.90;95995.00;;;;5050355;28;20216;-84
2022/06/24 08:55:23;;;;;;;1.10;0.75;;;27.80;63.10;28.90;95988.00;;;;5050721;28;20192;-85
2022/06/24 08:57:51;;;;;;;4.38;1.08;;;27.80;63.20;28.90;95983.00;;;;5050912;28;20270;-84
2022/06/24 09:00:19;;;;;;;1.10;0.60;;;27.80;63.40;28.80;95990.00;;;;5050029;28;20192;-84
2022/06/24 09:02:47;;;;;;;4.45;1.00;;;27.70;62.90;28.70;95986.00;;;;5031834;28;20255;-84
2022/06/24 09:05:16;;;;;;;3.03;0.80;;;27.60;62.80;28.70;95981.00;;;;5042020;28;20204;-85
2022/06/24 09:07:43;;;;;;;1.65;0.80;;;27.70;63.00;28.60;95982.00;;;;5047824;28;20626;-83
2022/06/24 09:10:14;;;;;;;1.50;0.60;;;27.60;63.10;28.60;95985.00;;;;5042474;28;20201;-84
2022/06/24 09:12:45;;;;;;;0.77;0.70;;;27.60;63.20;28.50;95972.00;;;;5040106;28;20263;-84
2022/06/24 09:15:14;;;;;;;0.70;0.60;;;27.50;62.50;28.50;95967.00;;;;5051745;28;20623;-84
2022/06/24 09:17:42;;;;;;;1.67;0.67;;;27.50;62.50;28.40;95978.00;;;;5050921;28;20248;-85
2022/06/24 09:20:14;;;;;;;2.63;0.80;;;27.50;62.50;28.40;95965.00;;;;5056063;28;20662;-84
2022/06/24 09:22:41;;;;;;;1.87;0.90;;;27.40;63.20;28.40;95973.00;;;;5071862;28;20201;-85
2022/06/24 09:25:10;;;;;;;2.50;0.80;;;27.40;63.30;28.40;95973.00;;;;5056127;28;20220;-84
2022/06/24 09:27:45;;;;;;;1.60;0.77;;;27.40;63.40;28.40;95966.00;;;;5031986;28;20225;-84
2022/06/24 09:30:15;;;;;;;1.70;0.80;;;27.40;62.60;28.40;95967.00;;;;5032557;28;20582;-84
2022/06/24 09:32:53;;;;;;;2.60;0.87;;;27.40;63.30;28.50;95965.00;;;;5031865;28;20248;-84
2022/06/24 09:35:22;;;;;;;3.28;1.05;;;27.40;62.40;28.60;95963.00;;;;5031494;28;20225;-84
2022/06/24 09:37:52;;;;;;;1.90;0.88;;;27.40;63.30;28.70;95956.00;;;;5037781;28;20216;-85
2022/06/24 09:40:25;;;;;;;1.52;0.80;;;27.50;63.60;28.80;95952.00;;;;5043775;28;20304;-84
2022/06/24 09:42:56;;;;;;;1.67;0.80;;;27.50;62.50;28.90;95951.00;;;;5031490;28;20749;-84
2022/06/24 09:45:25;;;;;;;1.70;0.77;;;27.60;63.00;29.00;95945.00;;;;5047319;28;20698;-84
2022/06/24 09:47:53;;;;;;;2.60;1.00;;;27.60;63.30;29.00;95949.00;;;;5031586;28;20729;-85
2022/06/24 09:50:22;;;;;;;3.03;0.80;;;27.70;62.70;29.10;95950.00;;;;5047424;28;20634;-85
2022/06/24 09:52:52;;;;;;;1.10;0.90;;;27.80;63.40;29.20;95948.00;;;;5051673;28;20319;-84
2022/06/24 09:55:20;;;;;;;1.55;0.80;;;27.90;63.10;29.30;95952.00;;;;5046768;28;20288;-84
2022/06/24 09:57:48;;;;;;;3.08;1.23;;;27.90;62.60;29.30;95951.00;;;;5051762;28;20213;-84
2022/06/24 10:03:05;;;;;;;2.85;0.95;;;28.00;61.90;29.40;95946.00;;;;5051667;28;20195;-85
2022/06/24 10:05:36;;;;;;;2.35;1.20;;;28.10;61.90;29.50;95943.00;;;;5034831;28;20207;-85
2022/06/24 10:08:06;;;;;;;2.00;1.17;;;28.10;62.10;29.50;95945.00;;;;5040026;28;20256;-85
2022/06/24 10:10:37;;;;;;;2.40;0.77;;;28.10;61.70;29.50;95929.00;;;;5038921;28;20209;-83
2022/06/24 10:13:10;;;;;;;1.80;0.70;;;28.20;61.70;29.60;95924.00;;;;5036020;28;20298;-84
2022/06/24 10:15:38;;;;;;;1.42;1.00;;;28.20;61.10;29.60;95919.00;;;;5038020;28;20634;-82
2022/06/24 10:18:11;;;;;;;2.13;1.15;;;28.30;61.80;29.60;95922.00;;;;5036024;28;20217;-83
2022/06/24 10:20:43;;;;;;;2.80;0.80;;;28.30;61.00;29.70;95924.00;;;;5036735;28;20295;-84
2022/06/24 10:23:38;;;;;;;2.03;1.15;;;28.40;62.20;29.80;95924.00;;;;5048782;28;20220;-84
2022/06/24 10:26:17;;;;;;;2.65;0.80;;;28.50;60.60;29.90;95928.00;;;;5049495;28;20220;-84
2022/06/24 10:29:23;;;;;;;2.97;0.90;;;28.60;62.10;30.00;95927.00;;;;5044230;28;20216;-83
2022/06/24 10:32:05;;;;;;;2.72;0.93;;;28.60;60.20;30.10;95922.00;;;;5054390;28;20200;-84
2022/06/24 10:34:44;;;;;;;2.65;1.08;;;28.80;62.30;30.20;95915.00;;;;5054964;28;20204;-84
2022/06/24 10:37:29;;;;;;;0.50;0.50;;;28.70;61.60;30.20;95912.00;;;;5042381;28;20209;-84
2022/06/24 10:39:59;;;;;;;1.80;0.70;;;28.90;61.90;30.30;95912.00;;;;5050233;28;20205;-84
2022/06/24 10:42:30;;;;;;;2.60;0.90;;;28.90;61.20;30.40;95916.00;;;;5035183;28;20201;-84
2022/06/24 10:45:02;;;;;;;1.77;0.90;;;29.00;61.40;30.40;95911.00;;;;5039620;28;20184;-84
2022/06/24 10:47:43;;;;;;;2.75;0.90;;;29.10;61.20;30.50;95896.00;;;;5037984;28;20304;-84
2022/06/24 10:50:20;;;;;;;1.95;1.00;;;29.20;60.70;30.60;95890.00;;;;5040925;28;20247;-84
2022/06/24 10:53:03;;;;;;;2.55;1.10;;;29.20;60.50;30.80;95889.00;;;;5054398;28;20220;-85
2022/06/24 10:55:38;;;;;;;2.60;0.90;;;29.30;59.40;30.80;95878.00;;;;5045981;28;20348;-84
2022/06/24 10:58:09;;;;;;;1.77;0.75;;;29.40;60.50;30.80;95880.00;;;;5058521;22;20304;-81
2022/06/24 11:00:51;;;;;;;1.33;0.77;;;29.40;60.40;30.90;95878.00;;;;5031609;28;20248;-79
2022/06/24 11:03:39;;;;;;;1.65;0.80;;;29.50;60.30;30.90;95877.00;;;;5014057;28;20297;-78
2022/06/24 11:06:10;;;;;;;0.82;0.60;;;29.50;60.60;30.90;95870.00;;;;5027974;28;20204;-81
2022/06/24 11:08:39;;;;;;;1.48;0.75;;;29.60;60.30;31.00;95873.00;;;;5020322;28;20205;-81
2022/06/24 11:11:06;;;;;;;2.38;1.00;;;29.60;60.20;31.00;95874.00;;;;5036900;28;20625;-80
2022/06/24 11:13:34;;;;;;;3.45;1.00;;;29.60;59.50;31.00;95879.00;;;;5034989;28;20304;-81
2022/06/24 11:16:02;;;;;;;1.75;0.90;;;29.60;59.20;31.00;95871.00;;;;5021013;28;20693;-81
2022/06/24 11:18:32;;;;;;;1.52;0.80;;;29.60;59.40;30.90;95870.00;;;;5025481;28;20228;-81